createdAt,value
2023-02-17T00:00:46.371Z,100866.63
2023-02-17T00:03:12.706Z,100861.25
2023-02-17T00:05:39.006Z,100873.41
2023-02-17T00:08:05.322Z,100862.09
2023-02-17T00:10:31.630Z,100868.50
2023-02-17T00:12:57.958Z,100870.84
2023-02-17T00:15:24.302Z,100875.25
2023-02-17T00:17:50.712Z,100876.25
2023-02-17T00:20:17.034Z,100871.75
2023-02-17T00:22:43.372Z,100878.63
2023-02-17T00:25:09.679Z,100868.81
2023-02-17T00:27:35.990Z,100869.25
2023-02-17T00:30:02.358Z,100870.53
2023-02-17T00:32:28.711Z,100863.34
2023-02-17T00:34:57.007Z,100858.69
2023-02-17T00:37:23.318Z,100856.97
2023-02-17T00:39:49.656Z,100853.34
2023-02-17T00:42:15.997Z,100853.09
2023-02-17T00:44:42.305Z,100847.91
2023-02-17T00:47:08.627Z,100856.12
2023-02-17T00:49:34.964Z,100847.53
2023-02-17T00:52:02.046Z,100858.62
2023-02-17T00:54:28.393Z,100857.19
2023-02-17T00:56:54.738Z,100851.72
2023-02-17T00:59:21.075Z,100853.81
2023-02-17T01:01:47.404Z,100858.22
2023-02-17T01:04:13.849Z,100848.03
2023-02-17T01:06:40.183Z,100849.47
2023-02-17T01:09:06.522Z,100847.37
2023-02-17T01:11:32.876Z,100852.09
2023-02-17T01:13:59.175Z,100844.44
2023-02-17T01:16:25.540Z,100850.53
2023-02-17T01:18:51.884Z,100844.28
2023-02-17T01:21:18.216Z,100841.44
2023-02-17T01:23:44.604Z,100836.06
2023-02-17T01:26:10.945Z,100823.09
2023-02-17T01:28:37.277Z,100832.16
2023-02-17T01:31:03.653Z,100831.34
2023-02-17T01:33:30.027Z,100831.88
2023-02-17T01:35:56.349Z,100824.06
2023-02-17T01:38:22.653Z,100823.69
2023-02-17T01:40:49.014Z,100811.56
2023-02-17T01:43:15.313Z,100822.75
2023-02-17T01:45:41.703Z,100809.91
2023-02-17T01:48:08.043Z,100814.94
2023-02-17T01:50:34.402Z,100819.56
2023-02-17T01:53:00.734Z,100828.72
2023-02-17T01:55:27.166Z,100816.87
2023-02-17T01:57:53.489Z,100801.38
2023-02-17T02:00:19.806Z,100812.63
2023-02-17T02:02:46.213Z,100805.66
2023-02-17T02:05:12.646Z,100807.28
2023-02-17T02:07:39.112Z,100803.41
2023-02-17T02:10:05.539Z,100791.09
2023-02-17T02:12:31.865Z,100792.25
2023-02-17T02:14:58.200Z,100773.66
2023-02-17T02:17:24.539Z,100769.91
2023-02-17T02:19:50.878Z,100767.06
2023-02-17T02:22:17.193Z,100758.91
2023-02-17T02:24:43.503Z,100754.63
2023-02-17T02:27:09.810Z,100762.37
2023-02-17T02:29:36.123Z,100748.00
2023-02-17T02:32:02.536Z,100744.50
2023-02-17T02:34:28.904Z,100745.25
2023-02-17T02:36:55.218Z,100742.94
2023-02-17T02:39:21.719Z,100735.69
2023-02-17T02:41:48.056Z,100722.41
2023-02-17T02:44:14.370Z,100726.91
2023-02-17T02:46:40.705Z,100716.97
2023-02-17T02:49:07.027Z,100708.34
2023-02-17T02:51:33.374Z,100711.66
2023-02-17T02:53:59.700Z,100698.53
2023-02-17T02:56:26.070Z,100697.72
2023-02-17T02:58:52.431Z,100697.13
2023-02-17T03:01:18.886Z,100695.44
2023-02-17T03:03:45.255Z,100678.47
2023-02-17T03:06:11.589Z,100678.22
2023-02-17T03:08:37.962Z,100697.22
2023-02-17T03:11:04.294Z,100701.53
2023-02-17T03:13:30.664Z,100694.44
2023-02-17T03:15:56.987Z,100693.88
2023-02-17T03:18:23.293Z,100688.41
2023-02-17T03:20:50.078Z,100691.34
2023-02-17T03:23:16.415Z,100690.25
2023-02-17T03:25:45.140Z,100684.56
2023-02-17T03:28:11.513Z,100686.97
2023-02-17T03:30:38.291Z,100676.88
2023-02-17T03:33:04.626Z,100674.81
2023-02-17T03:35:30.948Z,100663.25
2023-02-17T03:37:57.277Z,100661.28
2023-02-17T03:40:23.574Z,100662.81
2023-02-17T03:42:49.902Z,100660.81
2023-02-17T03:45:16.245Z,100665.25
2023-02-17T03:47:42.597Z,100668.91
2023-02-17T03:50:08.962Z,100665.16
2023-02-17T03:52:35.254Z,100663.34
2023-02-17T03:55:01.606Z,100670.72
2023-02-17T03:57:27.988Z,100653.19
2023-02-17T03:59:54.319Z,100648.94
2023-02-17T04:02:20.721Z,100648.75
2023-02-17T04:04:47.014Z,100658.63
2023-02-17T04:07:13.332Z,100647.50
2023-02-17T04:09:39.667Z,100651.75
2023-02-17T04:12:05.970Z,100656.22
2023-02-17T04:14:32.325Z,100658.00
2023-02-17T04:16:58.659Z,100647.22
2023-02-17T04:19:24.985Z,100662.41
2023-02-17T04:21:51.313Z,100654.22
2023-02-17T04:24:17.616Z,100647.00
2023-02-17T04:26:43.929Z,100655.84
2023-02-17T04:29:10.246Z,100658.72
2023-02-17T04:31:36.691Z,100664.75
2023-02-17T04:34:03.049Z,100662.75
2023-02-17T04:36:29.369Z,100654.00
2023-02-17T04:38:55.686Z,100658.75
2023-02-17T04:41:22.021Z,100648.72
2023-02-17T04:43:48.457Z,100642.28
2023-02-17T04:46:14.800Z,100650.50
2023-02-17T04:48:41.139Z,100648.72
2023-02-17T04:51:07.485Z,100650.34
2023-02-17T04:53:33.831Z,100642.53
2023-02-17T04:56:00.208Z,100643.50
2023-02-17T04:58:26.570Z,100638.75
2023-02-17T05:00:52.863Z,100635.50
2023-02-17T05:03:19.228Z,100625.94
2023-02-17T05:05:45.546Z,100629.12
2023-02-17T05:08:11.894Z,100627.28
2023-02-17T05:10:38.256Z,100608.69
2023-02-17T05:13:04.569Z,100625.25
2023-02-17T05:15:32.527Z,100619.47
2023-02-17T05:18:00.055Z,100614.47
2023-02-17T05:20:26.409Z,100619.28
2023-02-17T05:22:52.722Z,100616.84
2023-02-17T05:25:19.036Z,100625.66
2023-02-17T05:27:45.362Z,100627.28
2023-02-17T05:30:11.691Z,100617.94
2023-02-17T05:32:38.098Z,100618.06
2023-02-17T05:35:04.428Z,100606.47
2023-02-17T05:37:30.736Z,100615.16
2023-02-17T05:39:57.043Z,100610.56
2023-02-17T05:42:23.375Z,100606.47
2023-02-17T05:44:49.670Z,100608.50
2023-02-17T05:47:15.997Z,100603.59
2023-02-17T05:49:42.327Z,100599.34
2023-02-17T05:52:08.670Z,100604.91
2023-02-17T05:54:35.059Z,100602.31
2023-02-17T05:57:01.379Z,100601.03
2023-02-17T05:59:27.778Z,100594.66
2023-02-17T06:01:54.136Z,100598.59
2023-02-17T06:04:20.487Z,100596.81
2023-02-17T06:06:47.002Z,100586.78
2023-02-17T06:09:13.352Z,100593.37
2023-02-17T06:11:39.685Z,100590.84
2023-02-17T06:14:06.007Z,100592.72
2023-02-17T06:16:32.401Z,100590.28
2023-02-17T06:19:00.180Z,100590.16
2023-02-17T06:21:26.517Z,100590.97
2023-02-17T06:23:52.885Z,100588.69
2023-02-17T06:26:19.227Z,100595.44
2023-02-17T06:28:45.729Z,100587.22
2023-02-17T06:31:12.185Z,100584.44
2023-02-17T06:33:38.533Z,100572.34
2023-02-17T06:36:05.244Z,100595.09
2023-02-17T06:38:31.806Z,100588.06
2023-02-17T06:40:58.159Z,100587.25
2023-02-17T06:43:24.506Z,100596.41
2023-02-17T06:45:50.889Z,100595.31
2023-02-17T06:48:17.231Z,100584.47
2023-02-17T06:50:43.599Z,100579.56
2023-02-17T06:53:09.946Z,100586.63
2023-02-17T06:55:37.391Z,100583.03
2023-02-17T06:58:03.720Z,100578.91
2023-02-17T07:00:30.267Z,100574.19
2023-02-17T07:02:56.700Z,100567.97
2023-02-17T07:05:23.096Z,100576.47
2023-02-17T07:07:49.454Z,100578.12
2023-02-17T07:10:15.772Z,100564.50
2023-02-17T07:12:42.093Z,100575.00
2023-02-17T07:15:12.084Z,100582.72
2023-02-17T07:17:38.830Z,100569.13
2023-02-17T07:20:05.159Z,100579.28
2023-02-17T07:22:31.477Z,100575.19
2023-02-17T07:24:57.794Z,100574.53
2023-02-17T07:27:24.183Z,100579.94
2023-02-17T07:29:50.514Z,100576.97
2023-02-17T07:32:17.041Z,100581.72
2023-02-17T07:34:44.189Z,100582.56
2023-02-17T07:37:10.536Z,100573.88
2023-02-17T07:39:36.899Z,100575.84
2023-02-17T07:42:05.186Z,100578.31
2023-02-17T07:44:31.527Z,100567.16
2023-02-17T07:46:57.839Z,100563.22
2023-02-17T07:49:24.170Z,100569.44
2023-02-17T07:51:50.497Z,100567.16
2023-02-17T07:54:17.415Z,100563.38
2023-02-17T07:56:43.796Z,100564.84
2023-02-17T07:59:10.212Z,100561.59
2023-02-17T08:01:36.566Z,100547.47
2023-02-17T08:04:02.953Z,100553.69
2023-02-17T08:06:29.356Z,100562.41
2023-02-17T08:09:14.665Z,100551.56
2023-02-17T08:11:59.626Z,100562.56
2023-02-17T08:14:25.959Z,100554.34
2023-02-17T08:16:52.350Z,100554.03
2023-02-17T08:19:18.716Z,100560.56
2023-02-17T08:21:45.092Z,100576.63
2023-02-17T08:24:12.339Z,100571.22
2023-02-17T08:26:38.688Z,100578.78
2023-02-17T08:29:05.054Z,100566.28
2023-02-17T08:31:31.489Z,100579.87
2023-02-17T08:33:57.967Z,100578.91
2023-02-17T08:36:24.866Z,100586.16
2023-02-17T08:38:51.392Z,100576.97
2023-02-17T08:41:17.698Z,100583.69
2023-02-17T08:43:44.045Z,100572.03
2023-02-17T08:46:10.387Z,100577.13
2023-02-17T08:48:37.196Z,100572.50
2023-02-17T08:51:03.677Z,100573.31
2023-02-17T08:53:30.059Z,100577.28
2023-02-17T08:55:56.405Z,100568.25
2023-02-17T08:58:22.791Z,100569.06
2023-02-17T09:00:49.157Z,100563.50
2023-02-17T09:03:15.477Z,100557.25
2023-02-17T09:05:44.350Z,100560.69
2023-02-17T09:08:11.164Z,100564.28
2023-02-17T09:10:37.493Z,100546.41
2023-02-17T09:13:03.807Z,100547.84
2023-02-17T09:15:30.210Z,100537.31
2023-02-17T09:17:56.629Z,100536.50
2023-02-17T09:20:25.349Z,100545.03
2023-02-17T09:22:52.484Z,100530.91
2023-02-17T09:25:18.947Z,100532.19
2023-02-17T09:27:45.292Z,100523.31
2023-02-17T09:30:11.708Z,100518.50
2023-02-17T09:32:38.095Z,100531.25
2023-02-17T09:35:06.197Z,100532.50
2023-02-17T09:37:32.539Z,100535.03
2023-02-17T09:39:58.849Z,100525.13
2023-02-17T09:42:25.250Z,100527.78
2023-02-17T09:44:52.370Z,100535.28
2023-02-17T09:47:19.041Z,100515.03
2023-02-17T09:49:45.623Z,100514.97
2023-02-17T09:52:11.947Z,100516.88
2023-02-17T09:54:38.305Z,100499.97
2023-02-17T09:57:04.712Z,100503.22
2023-02-17T09:59:31.096Z,100494.31
2023-02-17T10:01:57.399Z,100504.63
2023-02-17T10:04:23.882Z,100492.06
2023-02-17T10:06:50.301Z,100481.13
2023-02-17T10:09:16.748Z,100471.09
2023-02-17T10:11:43.425Z,100469.72
2023-02-17T10:14:09.805Z,100464.44
2023-02-17T10:16:36.267Z,100469.69
2023-02-17T10:19:02.653Z,100465.38
2023-02-17T10:21:29.105Z,100471.19
2023-02-17T10:23:55.466Z,100476.09
2023-02-17T10:26:21.884Z,100484.84
2023-02-17T10:28:48.247Z,100482.72
2023-02-17T10:31:14.672Z,100472.72
2023-02-17T10:33:41.167Z,100456.41
2023-02-17T10:36:07.828Z,100463.75
2023-02-17T10:38:34.305Z,100455.97
2023-02-17T10:41:00.632Z,100441.69
2023-02-17T10:43:27.313Z,100429.81
2023-02-17T10:45:53.812Z,100417.81
2023-02-17T10:48:20.127Z,100417.00
2023-02-17T10:50:46.446Z,100422.72
2023-02-17T10:53:12.786Z,100410.88
2023-02-17T10:55:39.184Z,100419.59
2023-02-17T10:58:05.734Z,100404.22
2023-02-17T11:00:32.288Z,100402.00
2023-02-17T11:02:58.625Z,100411.09
2023-02-17T11:05:24.946Z,100405.38
2023-02-17T11:07:51.292Z,100397.78
2023-02-17T11:10:17.694Z,100390.91
2023-02-17T11:12:44.019Z,100372.87
2023-02-17T11:15:10.346Z,100371.66
2023-02-17T11:17:36.713Z,100365.53
2023-02-17T11:20:04.648Z,100373.31
2023-02-17T11:22:31.222Z,100350.81
2023-02-17T11:24:57.534Z,100348.75
2023-02-17T11:27:23.852Z,100349.78
2023-02-17T11:29:50.362Z,100348.03
2023-02-17T11:32:16.812Z,100341.03
2023-02-17T11:34:43.213Z,100331.84
2023-02-17T11:37:09.563Z,100320.66
2023-02-17T11:39:35.901Z,100310.31
2023-02-17T11:42:02.212Z,100304.59
2023-02-17T11:44:28.596Z,100294.91
2023-02-17T11:46:54.949Z,100303.91
2023-02-17T11:49:21.255Z,100300.16
2023-02-17T11:51:47.590Z,100308.31
2023-02-17T11:54:13.923Z,100295.88
2023-02-17T11:56:40.230Z,100282.34
2023-02-17T11:59:06.582Z,100286.06
2023-02-17T12:01:33.219Z,100282.09
2023-02-17T12:03:59.650Z,100279.66
2023-02-17T12:06:26.038Z,100274.63
2023-02-17T12:08:52.348Z,100258.91
2023-02-17T12:11:18.773Z,100285.13
2023-02-17T12:13:45.120Z,100260.44
2023-02-17T12:16:11.464Z,100260.06
2023-02-17T12:18:38.427Z,100245.53
2023-02-17T12:21:04.769Z,100252.25
2023-02-17T12:23:31.111Z,100237.44
2023-02-17T12:25:57.464Z,100227.59
2023-02-17T12:28:23.771Z,100244.22
2023-02-17T12:30:50.229Z,100223.97
2023-02-17T12:33:16.577Z,100226.78
2023-02-17T12:35:42.877Z,100229.31
2023-02-17T12:38:09.189Z,100212.22
2023-02-17T12:40:35.520Z,100203.50
2023-02-17T12:43:01.958Z,100213.97
2023-02-17T12:45:28.271Z,100225.94
2023-02-17T12:47:55.387Z,100203.91
2023-02-17T12:50:21.734Z,100194.88
2023-02-17T12:52:48.053Z,100211.41
2023-02-17T12:55:14.354Z,100216.22
2023-02-17T12:57:40.665Z,100210.50
2023-02-17T13:00:06.957Z,100205.63
2023-02-17T13:02:33.612Z,100187.25
2023-02-17T13:04:59.936Z,100198.62
2023-02-17T13:07:26.628Z,100182.91
2023-02-17T13:09:52.976Z,100184.72
2023-02-17T13:12:19.345Z,100171.81
2023-02-17T13:14:45.957Z,100170.19
2023-02-17T13:17:12.279Z,100167.41
2023-02-17T13:19:38.656Z,100163.59
2023-02-17T13:22:05.748Z,100162.69
2023-02-17T13:24:32.144Z,100172.53
2023-02-17T13:26:58.511Z,100168.22
2023-02-17T13:29:24.898Z,100170.03
2023-02-17T13:31:51.462Z,100159.16
2023-02-17T13:34:17.860Z,100159.91
2023-02-17T13:36:44.262Z,100147.62
2023-02-17T13:39:10.561Z,100120.66
2023-02-17T13:41:36.879Z,100126.62
2023-02-17T13:44:03.322Z,100147.06
2023-02-17T13:46:29.685Z,100153.00
2023-02-17T13:48:56.057Z,100130.00
2023-02-17T13:51:22.398Z,100125.81
2023-02-17T13:53:48.719Z,100145.72
2023-02-17T13:56:15.024Z,100122.06
2023-02-17T13:58:41.388Z,100103.50
2023-02-17T14:01:07.747Z,100119.78
2023-02-17T14:03:34.125Z,100119.50
2023-02-17T14:06:00.490Z,100093.09
2023-02-17T14:08:29.839Z,100106.13
2023-02-17T14:10:56.168Z,100092.47
2023-02-17T14:13:22.474Z,100094.91
2023-02-17T14:15:48.830Z,100108.09
2023-02-17T14:18:15.161Z,100093.09
2023-02-17T14:20:41.485Z,100106.62
2023-02-17T14:23:07.821Z,100099.41
2023-02-17T14:25:34.144Z,100093.34
2023-02-17T14:28:00.465Z,100072.62
2023-02-17T14:30:26.817Z,100093.34
2023-02-17T14:32:53.154Z,100082.66
2023-02-17T14:35:19.981Z,100086.00
2023-02-17T14:37:46.349Z,100074.81
2023-02-17T14:40:12.700Z,100064.41
2023-02-17T14:42:39.045Z,100071.81
2023-02-17T14:45:05.379Z,100058.91
2023-02-17T14:47:31.729Z,100054.06
2023-02-17T14:49:58.079Z,100062.59
2023-02-17T14:52:24.413Z,100057.66
2023-02-17T14:54:50.751Z,100063.87
2023-02-17T14:57:17.134Z,100069.47
2023-02-17T14:59:43.521Z,100053.69
2023-02-17T15:02:09.858Z,100039.75
2023-02-17T15:04:36.197Z,100041.75
2023-02-17T15:07:02.525Z,100035.47
2023-02-17T15:09:28.949Z,100018.66
2023-02-17T15:11:55.275Z,100032.84
2023-02-17T15:14:21.623Z,100023.34
2023-02-17T15:16:47.935Z,100039.09
2023-02-17T15:19:14.245Z,100057.25
2023-02-17T15:21:40.554Z,100050.75
2023-02-17T15:24:06.881Z,100049.41
2023-02-17T15:26:33.235Z,100072.00
2023-02-17T15:28:59.626Z,100062.91
2023-02-17T15:31:26.074Z,100089.44
2023-02-17T15:33:52.445Z,100083.31
2023-02-17T15:36:18.821Z,100072.41
2023-02-17T15:38:45.215Z,100101.87
2023-02-17T15:41:11.566Z,100095.38
2023-02-17T15:43:37.917Z,100100.09
2023-02-17T15:46:04.366Z,100099.66
2023-02-17T15:48:31.982Z,100096.66
2023-02-17T15:50:58.300Z,100094.31
2023-02-17T15:53:24.632Z,100092.31
2023-02-17T15:55:51.253Z,100088.97
2023-02-17T15:58:17.592Z,100081.22
2023-02-17T16:00:46.158Z,100092.16
2023-02-17T16:03:13.561Z,100083.94
2023-02-17T16:05:39.979Z,100093.97
2023-02-17T16:08:06.350Z,100096.59
2023-02-17T16:10:32.654Z,100100.19
2023-02-17T16:12:59.006Z,100097.13
2023-02-17T16:15:25.391Z,100090.59
2023-02-17T16:17:51.713Z,100080.50
2023-02-17T16:20:18.126Z,100098.13
2023-02-17T16:22:44.466Z,100086.03
2023-02-17T16:25:10.796Z,100089.44
2023-02-17T16:27:38.814Z,100077.16
2023-02-17T16:30:05.194Z,100067.87
2023-02-17T16:32:33.897Z,100077.97
2023-02-17T16:35:01.146Z,100072.00
2023-02-17T16:37:27.475Z,100071.75
2023-02-17T16:39:53.773Z,100076.53
2023-02-17T16:42:20.089Z,100078.25
2023-02-17T16:44:46.429Z,100072.03
2023-02-17T16:47:12.767Z,100077.25
2023-02-17T16:49:40.766Z,100068.03
2023-02-17T16:52:07.292Z,100071.94
2023-02-17T16:54:35.606Z,100068.56
2023-02-17T16:57:02.245Z,100065.88
2023-02-17T16:59:28.682Z,100063.91
2023-02-17T17:01:55.018Z,100062.91
2023-02-17T17:04:21.340Z,100060.75
2023-02-17T17:06:47.737Z,100061.19
2023-02-17T17:09:14.052Z,100072.00
2023-02-17T17:11:40.403Z,100039.06
2023-02-17T17:14:06.788Z,100058.47
2023-02-17T17:16:34.782Z,100048.19
2023-02-17T17:19:01.162Z,100058.47
2023-02-17T17:21:27.491Z,100055.41
2023-02-17T17:23:53.838Z,100067.25
2023-02-17T17:26:20.249Z,100052.31
2023-02-17T17:28:49.154Z,100073.53
2023-02-17T17:31:15.485Z,100076.62
2023-02-17T17:33:41.840Z,100071.00
2023-02-17T17:36:08.499Z,100082.50
2023-02-17T17:38:35.171Z,100076.09
2023-02-17T17:41:05.199Z,100077.56
2023-02-17T17:43:31.510Z,100074.78
2023-02-17T17:45:57.912Z,100088.88
2023-02-17T17:48:24.231Z,100090.97
2023-02-17T17:50:50.562Z,100088.97
2023-02-17T17:53:16.882Z,100095.38
2023-02-17T17:55:43.195Z,100086.97
2023-02-17T17:58:09.506Z,100096.03
2023-02-17T18:00:35.819Z,100104.59
2023-02-17T18:03:02.131Z,100124.09
2023-02-17T18:05:28.484Z,100111.06
2023-02-17T18:07:54.864Z,100115.03
2023-02-17T18:10:21.188Z,100131.78
2023-02-17T18:12:47.578Z,100130.97
2023-02-17T18:15:13.937Z,100131.09
2023-02-17T18:17:40.319Z,100126.72
2023-02-17T18:20:07.134Z,100126.00
2023-02-17T18:22:34.365Z,100144.63
2023-02-17T18:25:00.672Z,100160.62
2023-02-17T18:27:27.029Z,100165.78
2023-02-17T18:29:53.557Z,100169.66
2023-02-17T18:32:22.126Z,100188.88
2023-02-17T18:34:48.483Z,100193.69
2023-02-17T18:37:16.008Z,100193.37
2023-02-17T18:39:42.305Z,100205.88
2023-02-17T18:42:10.271Z,100212.22
2023-02-17T18:44:39.792Z,100223.87
2023-02-17T18:47:06.098Z,100231.34
2023-02-17T18:49:32.504Z,100236.81
2023-02-17T18:51:58.829Z,100254.88
2023-02-17T18:54:25.263Z,100245.91
2023-02-17T18:56:51.734Z,100237.03
2023-02-17T18:59:18.273Z,100229.69
2023-02-17T19:01:44.694Z,100233.06
2023-02-17T19:04:12.981Z,100224.69
2023-02-17T19:06:39.324Z,100241.91
2023-02-17T19:09:05.634Z,100231.69
2023-02-17T19:11:31.972Z,100228.78
2023-02-17T19:13:58.330Z,100243.66
2023-02-17T19:16:24.721Z,100237.13
2023-02-17T19:18:51.045Z,100229.47
2023-02-17T19:21:17.381Z,100253.91
2023-02-17T19:23:43.933Z,100248.53
2023-02-17T19:26:10.429Z,100253.06
2023-02-17T19:28:36.789Z,100251.22
2023-02-17T19:31:04.421Z,100247.84
2023-02-17T19:33:31.336Z,100247.63
2023-02-17T19:35:57.722Z,100263.13
2023-02-17T19:38:24.146Z,100252.75
2023-02-17T19:40:50.460Z,100244.59
2023-02-17T19:43:16.762Z,100255.88
2023-02-17T19:45:43.650Z,100265.31
2023-02-17T19:48:09.970Z,100238.56
2023-02-17T19:50:36.271Z,100263.69
2023-02-17T19:53:03.008Z,100254.41
2023-02-17T19:55:29.303Z,100268.13
2023-02-17T19:57:55.664Z,100266.28
2023-02-17T20:00:22.014Z,100280.47
2023-02-17T20:02:48.397Z,100277.31
2023-02-17T20:05:14.767Z,100265.22
2023-02-17T20:07:41.202Z,100273.38
2023-02-17T20:10:10.801Z,100263.94
2023-02-17T20:12:37.406Z,100266.03
2023-02-17T20:15:03.733Z,100256.97
2023-02-17T20:17:30.037Z,100271.06
2023-02-17T20:19:56.579Z,100266.41
2023-02-17T20:22:22.905Z,100263.25
2023-02-17T20:24:49.461Z,100268.84
2023-02-17T20:27:15.854Z,100269.19
2023-02-17T20:29:42.176Z,100262.78
2023-02-17T20:32:08.634Z,100263.25
2023-02-17T20:34:35.852Z,100263.94
2023-02-17T20:37:02.650Z,100279.22
2023-02-17T20:39:28.989Z,100275.34
2023-02-17T20:41:55.313Z,100279.66
2023-02-17T20:44:21.745Z,100272.91
2023-02-17T20:46:48.263Z,100269.19
2023-02-17T20:49:15.166Z,100289.22
2023-02-17T20:51:41.492Z,100266.75
2023-02-17T20:54:07.826Z,100287.69
2023-02-17T20:56:34.365Z,100281.16
2023-02-17T20:59:00.669Z,100288.97
2023-02-17T21:01:28.763Z,100300.28
2023-02-17T21:03:55.087Z,100287.69
2023-02-17T21:06:21.462Z,100300.84
2023-02-17T21:08:47.951Z,100291.31
2023-02-17T21:11:14.281Z,100293.06
2023-02-17T21:13:40.631Z,100290.12
2023-02-17T21:16:07.248Z,100300.63
2023-02-17T21:18:33.778Z,100304.56
2023-02-17T21:21:00.095Z,100315.97
2023-02-17T21:23:26.456Z,100321.56
2023-02-17T21:25:53.178Z,100324.81
2023-02-17T21:28:19.505Z,100320.25
2023-02-17T21:30:45.830Z,100324.44
2023-02-17T21:33:12.160Z,100327.25
2023-02-17T21:35:38.457Z,100337.34
2023-02-17T21:38:04.761Z,100329.66
2023-02-17T21:40:31.146Z,100342.34
2023-02-17T21:43:16.332Z,100336.16
2023-02-17T21:45:44.903Z,100342.34
2023-02-17T21:48:11.244Z,100351.28
2023-02-17T21:50:37.584Z,100354.66
2023-02-17T21:53:03.898Z,100355.06
2023-02-17T21:55:30.222Z,100367.72
2023-02-17T21:57:56.641Z,100384.97
2023-02-17T22:00:22.969Z,100382.66
2023-02-17T22:02:49.296Z,100405.47
2023-02-17T22:05:15.671Z,100397.88
2023-02-17T22:07:41.987Z,100417.34
2023-02-17T22:10:08.346Z,100430.50
2023-02-17T22:12:34.686Z,100441.13
2023-02-17T22:15:02.660Z,100462.91
2023-02-17T22:17:28.957Z,100459.56
2023-02-17T22:19:55.366Z,100470.16
2023-02-17T22:22:21.825Z,100467.63
2023-02-17T22:24:48.144Z,100447.97
2023-02-17T22:27:14.622Z,100474.06
2023-02-17T22:29:40.925Z,100475.84
2023-02-17T22:32:07.255Z,100482.94
2023-02-17T22:34:33.601Z,100476.19
2023-02-17T22:36:59.925Z,100480.44
2023-02-17T22:39:26.233Z,100485.38
2023-02-17T22:41:52.559Z,100478.97
2023-02-17T22:44:18.876Z,100480.97
2023-02-17T22:46:45.200Z,100494.53
2023-02-17T22:49:12.023Z,100491.13
2023-02-17T22:51:38.343Z,100491.13
2023-02-17T22:54:04.667Z,100495.41
2023-02-17T22:56:30.998Z,100496.22
2023-02-17T22:59:00.850Z,100500.81
2023-02-17T23:01:27.246Z,100487.87
2023-02-17T23:03:54.511Z,100508.97
2023-02-17T23:06:21.813Z,100505.56
2023-02-17T23:08:48.697Z,100507.34
2023-02-17T23:11:15.003Z,100527.34
2023-02-17T23:13:41.308Z,100521.75
2023-02-17T23:16:08.043Z,100513.56
2023-02-17T23:18:34.502Z,100528.50
2023-02-17T23:21:00.816Z,100529.94
2023-02-17T23:23:27.134Z,100529.63
2023-02-17T23:25:53.457Z,100539.63
2023-02-17T23:28:19.762Z,100546.03
2023-02-17T23:30:47.583Z,100543.19
2023-02-17T23:33:13.986Z,100541.56
2023-02-17T23:35:41.303Z,100533.22
2023-02-17T23:38:08.099Z,100544.19
2023-02-17T23:40:34.421Z,100545.50
2023-02-17T23:43:00.760Z,100535.53
2023-02-17T23:45:27.088Z,100550.91
2023-02-17T23:47:53.406Z,100542.53
2023-02-17T23:50:19.753Z,100544.34
2023-02-17T23:52:46.072Z,100551.09
2023-02-17T23:55:12.386Z,100551.09
2023-02-17T23:57:41.805Z,100554.22
